METAR Data
IDs: Format: Raw Decoded Include TAF

Data at: 2322 UTC 29 May 2020

METAR for:KCNC (Chariton Muni, IA, US)
Text:KCNC 292315Z AUTO 35009G16KT 10SM CLR 21/10 A3013 RMK AO2
Temperature: 21.0°C ( 70°F)
Dewpoint: 10.0°C ( 50°F) [RH = 49%]
Pressure (altimeter):30.13 inches Hg (1020.4 mb)
Winds:from the N (350 degrees) at 10 MPH (9 knots; 4.6 m/s) gusting to 18 MPH (16 knots; 8.2 m/s)
Visibility:10 or more sm (16+ km)
Ceiling:at least 12,000 feet AGL
Clouds:sky clear below 12,000 feet AGL
QC Flag:automated observation with no human augmentation